EDT,Max TemperatureF,Mean TemperatureF,Min TemperatureF,Max Dew PointF,MeanDew PointF,Min DewpointF,Max Humidity, Mean Humidity, Min Humidity, Max Sea Level PressureIn, Mean Sea Level PressureIn, Min Sea Level PressureIn, Max VisibilityMiles, Mean VisibilityMiles, Min VisibilityMiles, Max Wind SpeedMPH, Mean Wind SpeedMPH, Max Gust SpeedMPH,PrecipitationIn, CloudCover, Events, WindDirDegrees
2012-10-1,66,52,39,50,44,38,97,79,50,29.98,29.93,29.85,10,9,6,6,1,,0.01,1,,57
2012-10-2,68,60,53,63,58,49,100,93,84,29.92,29.87,29.83,10,6,0,6,4,,0.75,8,Fog-Rain,86
2012-10-3,75,65,55,64,60,53,100,88,51,30.15,29.99,29.90,10,6,0,14,3,20,0.01,6,Fog,211
2012-10-4,73,63,53,54,52,49,93,74,42,30.17,30.13,30.08,10,10,9,15,4,22,0.00,1,,210
2012-10-5,64,58,50,57,54,48,94,87,72,30.07,30.02,29.94,10,8,2,10,6,20,0.40,7,Rain,265
2012-10-6,52,48,46,46,42,34,93,82,54,30.10,29.98,29.91,10,8,2,15,7,25,0.59,8,Rain,275
2012-10-7,46,44,42,41,39,36,89,81,73,30.17,30.10,30.07,10,10,7,12,5,,0.09,8,Rain,252
2012-10-8,51,43,35,38,34,31,93,76,50,30.26,30.22,30.17,10,10,6,10,5,,0.00,5,,189
2012-10-9,57,45,33,38,34,31,92,68,39,30.22,30.12,29.99,10,9,4,12,5,17,0.00,0,,176
2012-10-10,52,48,44,45,40,27,93,79,49,30.15,29.95,29.86,10,8,2,18,10,30,0.26,7,Rain,250
2012-10-11,55,44,32,31,29,24,85,54,37,30.27,30.19,30.12,10,10,10,16,9,26,0.00,2,,232
2012-10-12,50,39,30,40,34,27,89,71,44,30.46,30.31,30.13,10,10,6,9,6,20,0.05,5,Rain,335
2012-10-13,59,44,28,49,31,25,89,64,37,30.45,30.29,30.01,10,10,7,14,6,21,0.06,1,Rain,156
2012-10-14,75,65,57,59,55,51,87,71,49,30.01,29.84,29.60,10,10,6,26,13,37,0.06,5,Rain,197
2012-10-15,64,56,48,56,45,41,89,78,67,29.89,29.77,29.56,10,9,4,25,14,36,0.12,8,Rain,268
2012-10-16,55,48,42,43,39,35,89,72,47,29.99,29.92,29.87,10,10,10,9,4,,0.01,5,Rain,275
2012-10-17,70,56,43,44,41,37,80,59,40,29.90,29.82,29.73,10,10,10,16,9,21,0.00,1,,157
2012-10-18,66,55,46,48,43,37,86,67,44,29.81,29.69,29.60,10,9,2,26,12,41,0.05,4,Rain,169
2012-10-19,63,52,43,45,40,33,93,68,38,29.78,29.69,29.61,10,10,7,12,8,20,0.10,5,Rain,173
2012-10-20,52,48,44,45,42,39,93,82,63,29.91,29.74,29.66,10,10,2,17,10,28,0.11,8,Rain,223
2012-10-21,59,47,37,45,41,35,93,77,47,30.15,30.05,29.91,10,9,2,14,7,21,0.08,4,Rain,260
2012-10-22,71,55,39,50,43,36,89,65,42,30.19,30.12,30.04,10,10,10,8,3,,0.00,2,,179
2012-10-23,66,60,57,58,55,50,94,82,67,30.07,30.02,30.00,10,8,2,12,5,,0.15,7,Rain,199
2012-10-24,75,66,57,58,56,53,100,79,51,30.11,30.07,30.02,10,8,1,9,3,,0.03,3,Rain,185
2012-10-25,80,68,55,52,48,43,78,54,28,30.09,30.03,29.96,10,10,10,15,8,23,0.00,0,,177
2012-10-26,64,56,48,54,48,44,94,80,48,30.18,30.11,29.97,10,7,2,13,9,20,0.01,6,Rain,352
2012-10-27,48,46,45,45,43,39,93,88,76,30.12,30.07,30.05,10,6,2,13,9,24,0.85,8,Rain,13
2012-10-28,46,44,41,40,39,37,89,87,76,30.10,30.01,29.94,10,7,2,15,10,24,0.22,8,Rain,15
2012-10-29,43,42,41,40,38,37,93,88,81,29.94,29.74,29.32,10,6,3,24,11,40,1.49,8,Rain,3
2012-10-30,52,46,41,48,40,37,100,87,80,29.37,29.22,29.11,10,6,2,28,15,47,2.19,8,Rain,20
2012-10-31,45,43,41,41,38,37,89,85,81,29.60,29.48,29.36,10,9,3,14,6,22,0.65,8,Rain,239